PWSweather.com
Personal Weather Stations
Station Observations
KMAPEMBR3
Edgewater Drive, Pembroke, MA 02359

Edgewater DrivePembroke, MA 02359

Lat: 42.08, Lon: -70.7725

Elevation: 31

Station Type: Davis Vantage Vue

http://www.pembrokeweather.com

Latest ConditionsUpdated 7:10:07 AM EST Sunday, Jan 20, 2019
Currently Today's Max Today's Min Today's Average
Temperature 37.4°F3.0°C 37.7°F3.2°C 32.2°F0.1°C 33.7°F0.9°C
Dew Point 36.6°F2.6°C 37.2°F2.9°C 31.2°F-0.4°C 33.0°F0.6°C
Winds Calm Calm 5.0 mph -8.0 kmh - - 1.9 mph 3.1 kmh
Wind Gusts 1.0 mph1.6 kmh 17.0 mph27.4 kmh - -
Humidity 97% 98% 96% 97%
Pressure 29.56 in1001.0 mb 30.06 in1017.9 mb 29.56 in1001.0 mb -
Precipitation - 0.10 in2.5 mm - -
Hour Temp Dew Point Humidity Winds Wind Gusts Pressure Precip Precip Rate Daily Precip Total
07:10 AM 37.4°F3.0°C 36.6°F2.6°C 97% Calm Calm 1.0 mph1.6 kmh 29.56 in1001.0 mb 0.10 in2.5 mm 0.24 in6.1 mm 0.10 in2.5 mm
07:05 AM 37.5°F3.1°C 36.7°F2.6°C 97% Calm Calm 1.0 mph1.6 kmh 29.56 in1001.0 mb 0.08 in2.0 mm 0.12 in3.0 mm 0.08 in2.0 mm
07:00 AM 37.7°F3.2°C 37.2°F2.9°C 98% Calm Calm 2.0 mph3.2 kmh 29.56 in1001.0 mb 0.07 in1.8 mm 0.01 in0.3 mm 0.07 in1.8 mm
06:55 AM 37.6°F3.1°C 37.1°F2.8°C 98% Calm Calm 2.0 mph3.2 kmh 29.56 in1001.0 mb 0.06 in1.5 mm 0.00 in0.0 mm 0.06 in1.5 mm
06:50 AM 37.4°F3.0°C 36.9°F2.7°C 98% Calm Calm 3.0 mph4.8 kmh 29.57 in1001.4 mb 0.06 in1.5 mm 0.12 in3.0 mm 0.06 in1.5 mm
06:45 AM 37.4°F3.0°C 36.9°F2.7°C 98% 2.0 mph NE3.2 kmh NE 6.0 mph9.7 kmh 29.57 in1001.4 mb 0.05 in1.3 mm 0.12 in3.0 mm 0.05 in1.3 mm
06:40 AM 37.2°F2.9°C 36.7°F2.6°C 98% 3.0 mph NE4.8 kmh NE 7.0 mph11.3 kmh 29.57 in1001.4 mb 0.04 in1.0 mm 0.12 in3.0 mm 0.04 in1.0 mm
06:35 AM 37.0°F2.8°C 36.5°F2.5°C 98% 2.0 mph NE3.2 kmh NE 8.0 mph12.9 kmh 29.58 in1001.7 mb 0.03 in0.8 mm 0.12 in3.0 mm 0.03 in0.8 mm
06:30 AM 36.9°F2.7°C 36.4°F2.4°C 98% 1.0 mph NE1.6 kmh NE 8.0 mph12.9 kmh 29.59 in1002.0 mb 0.02 in0.5 mm 0.12 in3.0 mm 0.02 in0.5 mm
06:25 AM 36.8°F2.7°C 36.3°F2.4°C 98% 1.0 mph S1.6 kmh S 4.0 mph6.4 kmh 29.60 in1002.4 mb 0.01 in0.3 mm 0.12 in3.0 mm 0.01 in0.3 mm
06:20 AM 36.8°F2.7°C 36.3°F2.4°C 98% 1.0 mph SE1.6 kmh SE 6.0 mph9.7 kmh 29.60 in1002.4 mb 0.00 in0.0 mm 0.00 in0.0 mm 0.00 in0.0 mm
06:15 AM 36.7°F2.6°C 36.2°F2.3°C 98% 3.0 mph ENE4.8 kmh ENE 11.0 mph17.7 kmh 29.60 in1002.4 mb 0.00 in0.0 mm 0.00 in0.0 mm 0.00 in0.0 mm
06:10 AM 36.5°F2.5°C 36.0°F2.2°C 98% 5.0 mph ENE8.0 kmh ENE 11.0 mph17.7 kmh 29.60 in1002.4 mb 0.00 in0.0 mm 0.00 in0.0 mm 0.00 in0.0 mm
06:05 AM 36.3°F2.4°C 35.8°F2.1°C 98% 5.0 mph ENE8.0 kmh ENE 12.0 mph19.3 kmh 29.61 in1002.7 mb 0.00 in0.0 mm 0.00 in0.0 mm 0.00 in0.0 mm
06:00 AM 36.2°F2.3°C 35.7°F2.1°C 98% 5.0 mph E8.0 kmh E 15.0 mph24.1 kmh 29.62 in1003.0 mb 0.00 in0.0 mm 0.00 in0.0 mm 0.00 in0.0 mm
05:55 AM 36.0°F2.2°C 35.5°F1.9°C 98% 4.0 mph E6.4 kmh E 15.0 mph24.1 kmh 29.62 in1003.0 mb 0.00 in0.0 mm 0.00 in0.0 mm 0.00 in0.0 mm
05:50 AM 35.8°F2.1°C 35.3°F1.8°C 98% 4.0 mph E6.4 kmh E 12.0 mph19.3 kmh 29.63 in1003.4 mb 0.00 in0.0 mm 0.00 in0.0 mm 0.00 in0.0 mm
05:45 AM 35.6°F2.0°C 35.1°F1.7°C 98% 4.0 mph ESE6.4 kmh ESE 12.0 mph19.3 kmh 29.64 in1003.7 mb 0.00 in0.0 mm 0.00 in0.0 mm 0.00 in0.0 mm
05:40 AM 35.4°F1.9°C 34.6°F1.4°C 97% 4.0 mph E6.4 kmh E 14.0 mph22.5 kmh 29.65 in1004.1 mb 0.00 in0.0 mm 0.00 in0.0 mm 0.00 in0.0 mm
05:35 AM 35.3°F1.8°C 34.8°F1.6°C 98% 3.0 mph ENE4.8 kmh ENE 14.0 mph22.5 kmh 29.66 in1004.4 mb 0.00 in0.0 mm 0.00 in0.0 mm 0.00 in0.0 mm
05:30 AM 35.2°F1.8°C 34.7°F1.5°C 98% 3.0 mph E4.8 kmh E 11.0 mph17.7 kmh 29.68 in1005.1 mb 0.00 in0.0 mm 0.00 in0.0 mm 0.00 in0.0 mm
05:25 AM 35.0°F1.7°C 34.5°F1.4°C 98% 4.0 mph E6.4 kmh E 10.0 mph16.1 kmh 29.68 in1005.1 mb 0.00 in0.0 mm 0.00 in0.0 mm 0.00 in0.0 mm
05:20 AM 34.8°F1.6°C 34.0°F1.1°C 97% 4.0 mph ESE6.4 kmh ESE 11.0 mph17.7 kmh 29.68 in1005.1 mb 0.00 in0.0 mm 0.00 in0.0 mm 0.00 in0.0 mm
05:15 AM 34.7°F1.5°C 33.9°F1.1°C 97% 5.0 mph ESE8.0 kmh ESE 17.0 mph27.4 kmh 29.67 in1004.7 mb 0.00 in0.0 mm 0.00 in0.0 mm 0.00 in0.0 mm
05:10 AM 34.5°F1.4°C 33.7°F0.9°C 97% 4.0 mph E6.4 kmh E 17.0 mph27.4 kmh 29.68 in1005.1 mb 0.00 in0.0 mm 0.00 in0.0 mm 0.00 in0.0 mm
05:05 AM 34.3°F1.3°C 33.5°F0.8°C 97% 4.0 mph E6.4 kmh E 10.0 mph16.1 kmh 29.69 in1005.4 mb 0.00 in0.0 mm 0.00 in0.0 mm 0.00 in0.0 mm
05:00 AM 34.2°F1.2°C 33.4°F0.8°C 97% 3.0 mph E4.8 kmh E 11.0 mph17.7 kmh 29.71 in1006.1 mb 0.00 in0.0 mm 0.00 in0.0 mm 0.00 in0.0 mm
04:55 AM 34.1°F1.2°C 33.3°F0.7°C 97% 3.0 mph ENE4.8 kmh ENE 11.0 mph17.7 kmh 29.72 in1006.4 mb 0.00 in0.0 mm 0.00 in0.0 mm 0.00 in0.0 mm
04:50 AM 33.9°F1.1°C 33.1°F0.6°C 97% 2.0 mph E3.2 kmh E 8.0 mph12.9 kmh 29.73 in1006.8 mb 0.00 in0.0 mm 0.00 in0.0 mm 0.00 in0.0 mm
04:45 AM 33.8°F1.0°C 33.0°F0.6°C 97% 2.0 mph E3.2 kmh E 11.0 mph17.7 kmh 29.74 in1007.1 mb 0.00 in0.0 mm 0.00 in0.0 mm 0.00 in0.0 mm
04:40 AM 33.6°F0.9°C 32.8°F0.4°C 97% 1.0 mph E1.6 kmh E 11.0 mph17.7 kmh 29.75 in1007.5 mb 0.00 in0.0 mm 0.00 in0.0 mm 0.00 in0.0 mm
04:35 AM 33.5°F0.8°C 32.7°F0.4°C 97% 1.0 mph E1.6 kmh E 4.0 mph6.4 kmh 29.76 in1007.8 mb 0.00 in0.0 mm 0.00 in0.0 mm 0.00 in0.0 mm
04:30 AM 33.3°F0.7°C 32.5°F0.3°C 97% 1.0 mph E1.6 kmh E 4.0 mph6.4 kmh 29.78 in1008.5 mb 0.00 in0.0 mm 0.00 in0.0 mm 0.00 in0.0 mm
04:25 AM 33.3°F0.7°C 32.5°F0.3°C 97% 1.0 mph E1.6 kmh E 3.0 mph4.8 kmh 29.79 in1008.8 mb 0.00 in0.0 mm 0.00 in0.0 mm 0.00 in0.0 mm
04:20 AM 33.2°F0.7°C 32.4°F0.2°C 97% 1.0 mph ENE1.6 kmh ENE 4.0 mph6.4 kmh 29.80 in1009.1 mb 0.00 in0.0 mm 0.00 in0.0 mm 0.00 in0.0 mm
04:15 AM 33.2°F0.7°C 32.4°F0.2°C 97% 1.0 mph ENE1.6 kmh ENE 4.0 mph6.4 kmh 29.81 in1009.5 mb 0.00 in0.0 mm 0.00 in0.0 mm 0.00 in0.0 mm
04:10 AM 33.0°F0.6°C 32.2°F0.1°C 97% 1.0 mph ENE1.6 kmh ENE 4.0 mph6.4 kmh 29.81 in1009.5 mb 0.00 in0.0 mm 0.00 in0.0 mm 0.00 in0.0 mm
04:05 AM 33.0°F0.6°C 32.2°F0.1°C 97% 1.0 mph ENE1.6 kmh ENE 5.0 mph8.0 kmh 29.82 in1009.8 mb 0.00 in0.0 mm 0.00 in0.0 mm 0.00 in0.0 mm
04:00 AM 32.9°F0.5°C 32.1°F0.1°C 97% 1.0 mph NE1.6 kmh NE 5.0 mph8.0 kmh 29.82 in1009.8 mb 0.00 in0.0 mm 0.00 in0.0 mm 0.00 in0.0 mm
03:55 AM 32.8°F0.4°C 32.0°F0.0°C 97% 1.0 mph E1.6 kmh E 6.0 mph9.7 kmh 29.83 in1010.2 mb 0.00 in0.0 mm 0.00 in0.0 mm 0.00 in0.0 mm
03:50 AM 32.8°F0.4°C 32.0°F0.0°C 97% 1.0 mph E1.6 kmh E 6.0 mph9.7 kmh 29.84 in1010.5 mb 0.00 in0.0 mm 0.00 in0.0 mm 0.00 in0.0 mm
03:45 AM 32.7°F0.4°C 31.9°F-0.1°C 97% 1.0 mph E1.6 kmh E 4.0 mph6.4 kmh 29.84 in1010.5 mb 0.00 in0.0 mm 0.00 in0.0 mm 0.00 in0.0 mm
03:40 AM 32.6°F0.3°C 31.8°F-0.1°C 97% 1.0 mph E1.6 kmh E 3.0 mph4.8 kmh 29.85 in1010.8 mb 0.00 in0.0 mm 0.00 in0.0 mm 0.00 in0.0 mm
03:35 AM 32.6°F0.3°C 31.8°F-0.1°C 97% 1.0 mph E1.6 kmh E 7.0 mph11.3 kmh 29.86 in1011.2 mb 0.00 in0.0 mm 0.00 in0.0 mm 0.00 in0.0 mm
03:30 AM 32.5°F0.3°C 31.7°F-0.2°C 97% 2.0 mph E3.2 kmh E 7.0 mph11.3 kmh 29.86 in1011.2 mb 0.00 in0.0 mm 0.00 in0.0 mm 0.00 in0.0 mm
03:25 AM 32.5°F0.3°C 31.7°F-0.2°C 97% 2.0 mph E3.2 kmh E 7.0 mph11.3 kmh 29.86 in1011.2 mb 0.00 in0.0 mm 0.00 in0.0 mm 0.00 in0.0 mm
03:20 AM 32.4°F0.2°C 31.6°F-0.2°C 97% 2.0 mph E3.2 kmh E 7.0 mph11.3 kmh 29.86 in1011.2 mb 0.00 in0.0 mm 0.00 in0.0 mm 0.00 in0.0 mm
03:15 AM 32.4°F0.2°C 31.6°F-0.2°C 97% 1.0 mph E1.6 kmh E 6.0 mph9.7 kmh 29.87 in1011.5 mb 0.00 in0.0 mm 0.00 in0.0 mm 0.00 in0.0 mm
03:10 AM 32.4°F0.2°C 31.6°F-0.2°C 97% 2.0 mph E3.2 kmh E 5.0 mph8.0 kmh 29.88 in1011.9 mb 0.00 in0.0 mm 0.00 in0.0 mm 0.00 in0.0 mm
03:05 AM 32.4°F0.2°C 31.6°F-0.2°C 97% 2.0 mph ENE3.2 kmh ENE 5.0 mph8.0 kmh 29.88 in1011.9 mb 0.00 in0.0 mm 0.00 in0.0 mm 0.00 in0.0 mm
03:00 AM 32.4°F0.2°C 31.6°F-0.2°C 97% 2.0 mph E3.2 kmh E 5.0 mph8.0 kmh 29.88 in1011.9 mb 0.00 in0.0 mm 0.00 in0.0 mm 0.00 in0.0 mm
02:55 AM 32.4°F0.2°C 31.6°F-0.2°C 97% 1.0 mph E1.6 kmh E 6.0 mph9.7 kmh 29.89 in1012.2 mb 0.00 in0.0 mm 0.00 in0.0 mm 0.00 in0.0 mm
02:50 AM 32.4°F0.2°C 31.6°F-0.2°C 97% 1.0 mph E1.6 kmh E 6.0 mph9.7 kmh 29.90 in1012.5 mb 0.00 in0.0 mm 0.00 in0.0 mm 0.00 in0.0 mm
02:45 AM 32.4°F0.2°C 31.6°F-0.2°C 97% 2.0 mph ESE3.2 kmh ESE 5.0 mph8.0 kmh 29.90 in1012.5 mb 0.00 in0.0 mm 0.00 in0.0 mm 0.00 in0.0 mm
02:40 AM 32.4°F0.2°C 31.6°F-0.2°C 97% 2.0 mph ESE3.2 kmh ESE 8.0 mph12.9 kmh 29.91 in1012.9 mb 0.00 in0.0 mm 0.00 in0.0 mm 0.00 in0.0 mm
02:35 AM 32.4°F0.2°C 31.6°F-0.2°C 97% 2.0 mph ESE3.2 kmh ESE 8.0 mph12.9 kmh 29.92 in1013.2 mb 0.00 in0.0 mm 0.00 in0.0 mm 0.00 in0.0 mm
02:30 AM 32.4°F0.2°C 31.6°F-0.2°C 97% 2.0 mph E3.2 kmh E 6.0 mph9.7 kmh 29.92 in1013.2 mb 0.00 in0.0 mm 0.00 in0.0 mm 0.00 in0.0 mm
02:25 AM 32.4°F0.2°C 31.6°F-0.2°C 97% 2.0 mph E3.2 kmh E 6.0 mph9.7 kmh 29.93 in1013.5 mb 0.00 in0.0 mm 0.00 in0.0 mm 0.00 in0.0 mm
02:20 AM 32.4°F0.2°C 31.6°F-0.2°C 97% 2.0 mph E3.2 kmh E 5.0 mph8.0 kmh 29.93 in1013.5 mb 0.00 in0.0 mm 0.00 in0.0 mm 0.00 in0.0 mm
02:15 AM 32.4°F0.2°C 31.6°F-0.2°C 97% 2.0 mph E3.2 kmh E 5.0 mph8.0 kmh 29.93 in1013.5 mb 0.00 in0.0 mm 0.00 in0.0 mm 0.00 in0.0 mm
02:10 AM 32.4°F0.2°C 31.6°F-0.2°C 97% 2.0 mph ESE3.2 kmh ESE 6.0 mph9.7 kmh 29.94 in1013.9 mb 0.00 in0.0 mm 0.00 in0.0 mm 0.00 in0.0 mm
02:05 AM 32.4°F0.2°C 31.6°F-0.2°C 97% 2.0 mph E3.2 kmh E 6.0 mph9.7 kmh 29.94 in1013.9 mb 0.00 in0.0 mm 0.00 in0.0 mm 0.00 in0.0 mm
02:00 AM 32.4°F0.2°C 31.6°F-0.2°C 97% 2.0 mph E3.2 kmh E 5.0 mph8.0 kmh 29.96 in1014.6 mb 0.00 in0.0 mm 0.00 in0.0 mm 0.00 in0.0 mm
01:55 AM 32.4°F0.2°C 31.6°F-0.2°C 97% 1.0 mph ESE1.6 kmh ESE 5.0 mph8.0 kmh 29.96 in1014.6 mb 0.00 in0.0 mm 0.00 in0.0 mm 0.00 in0.0 mm
01:50 AM 32.4°F0.2°C 31.6°F-0.2°C 97% 1.0 mph E1.6 kmh E 10.0 mph16.1 kmh 29.97 in1014.9 mb 0.00 in0.0 mm 0.00 in0.0 mm 0.00 in0.0 mm
01:45 AM 32.4°F0.2°C 31.6°F-0.2°C 97% 2.0 mph E3.2 kmh E 10.0 mph16.1 kmh 29.96 in1014.6 mb 0.00 in0.0 mm 0.00 in0.0 mm 0.00 in0.0 mm
01:40 AM 32.4°F0.2°C 31.6°F-0.2°C 97% 2.0 mph E3.2 kmh E 6.0 mph9.7 kmh 29.95 in1014.2 mb 0.00 in0.0 mm 0.00 in0.0 mm 0.00 in0.0 mm
01:35 AM 32.4°F0.2°C 31.6°F-0.2°C 97% 2.0 mph E3.2 kmh E 7.0 mph11.3 kmh 29.96 in1014.6 mb 0.00 in0.0 mm 0.00 in0.0 mm 0.00 in0.0 mm
01:30 AM 32.5°F0.3°C 31.7°F-0.2°C 97% 2.0 mph E3.2 kmh E 7.0 mph11.3 kmh 29.97 in1014.9 mb 0.00 in0.0 mm 0.00 in0.0 mm 0.00 in0.0 mm
01:25 AM 32.6°F0.3°C 31.8°F-0.1°C 97% 1.0 mph E1.6 kmh E 7.0 mph11.3 kmh 29.98 in1015.2 mb 0.00 in0.0 mm 0.00 in0.0 mm 0.00 in0.0 mm
01:20 AM 32.6°F0.3°C 31.8°F-0.1°C 97% 1.0 mph E1.6 kmh E 7.0 mph11.3 kmh 29.98 in1015.2 mb 0.00 in0.0 mm 0.00 in0.0 mm 0.00 in0.0 mm
01:15 AM 32.6°F0.3°C 31.8°F-0.1°C 97% 1.0 mph ESE1.6 kmh ESE 6.0 mph9.7 kmh 29.98 in1015.2 mb 0.00 in0.0 mm 0.00 in0.0 mm 0.00 in0.0 mm
01:10 AM 32.6°F0.3°C 31.8°F-0.1°C 97% 1.0 mph ESE1.6 kmh ESE 6.0 mph9.7 kmh 29.98 in1015.2 mb 0.00 in0.0 mm 0.00 in0.0 mm 0.00 in0.0 mm
01:05 AM 32.6°F0.3°C 31.8°F-0.1°C 97% 2.0 mph E3.2 kmh E 7.0 mph11.3 kmh 29.98 in1015.2 mb 0.00 in0.0 mm 0.00 in0.0 mm 0.00 in0.0 mm
01:00 AM 32.6°F0.3°C 31.6°F-0.2°C 96% 2.0 mph ENE3.2 kmh ENE 7.0 mph11.3 kmh 29.98 in1015.2 mb 0.00 in0.0 mm 0.00 in0.0 mm 0.00 in0.0 mm
12:55 AM 32.6°F0.3°C 31.6°F-0.2°C 96% 2.0 mph ENE3.2 kmh ENE 6.0 mph9.7 kmh 29.99 in1015.6 mb 0.00 in0.0 mm 0.00 in0.0 mm 0.00 in0.0 mm
12:50 AM 32.6°F0.3°C 31.6°F-0.2°C 96% 1.0 mph E1.6 kmh E 5.0 mph8.0 kmh 30.00 in1015.9 mb 0.00 in0.0 mm 0.00 in0.0 mm 0.00 in0.0 mm
12:45 AM 32.5°F0.3°C 31.5°F-0.3°C 96% 1.0 mph E1.6 kmh E 6.0 mph9.7 kmh 30.00 in1015.9 mb 0.00 in0.0 mm 0.00 in0.0 mm 0.00 in0.0 mm
12:40 AM 32.5°F0.3°C 31.5°F-0.3°C 96% 1.0 mph E1.6 kmh E 6.0 mph9.7 kmh 30.00 in1015.9 mb 0.00 in0.0 mm 0.00 in0.0 mm 0.00 in0.0 mm
12:35 AM 32.5°F0.3°C 31.5°F-0.3°C 96% 1.0 mph E1.6 kmh E 5.0 mph8.0 kmh 30.00 in1015.9 mb 0.00 in0.0 mm 0.00 in0.0 mm 0.00 in0.0 mm
12:30 AM 32.5°F0.3°C 31.5°F-0.3°C 96% 1.0 mph E1.6 kmh E 6.0 mph9.7 kmh 30.01 in1016.3 mb 0.00 in0.0 mm 0.00 in0.0 mm 0.00 in0.0 mm
12:25 AM 32.5°F0.3°C 31.5°F-0.3°C 96% 1.0 mph E1.6 kmh E 7.0 mph11.3 kmh 30.02 in1016.6 mb 0.00 in0.0 mm 0.00 in0.0 mm 0.00 in0.0 mm
12:20 AM 32.5°F0.3°C 31.5°F-0.3°C 96% 1.0 mph E1.6 kmh E 7.0 mph11.3 kmh 30.03 in1016.9 mb 0.00 in0.0 mm 0.00 in0.0 mm 0.00 in0.0 mm
12:15 AM 32.4°F0.2°C 31.4°F-0.3°C 96% 1.0 mph E1.6 kmh E 6.0 mph9.7 kmh 30.04 in1017.3 mb 0.00 in0.0 mm 0.00 in0.0 mm 0.00 in0.0 mm
12:10 AM 32.3°F0.2°C 31.3°F-0.4°C 96% 2.0 mph ESE3.2 kmh ESE 7.0 mph11.3 kmh 30.04 in1017.3 mb 0.00 in0.0 mm 0.00 in0.0 mm 0.00 in0.0 mm
12:05 AM 32.3°F0.2°C 31.3°F-0.4°C 96% 2.0 mph E3.2 kmh E 7.0 mph11.3 kmh 30.05 in1017.6 mb 0.00 in0.0 mm 0.00 in0.0 mm 0.00 in0.0 mm
12:00 AM 32.2°F0.1°C 31.2°F-0.4°C 96% 2.0 mph E3.2 kmh E 14.0 mph22.5 kmh 30.06 in1017.9 mb 0.00 in0.0 mm 0.00 in0.0 mm 0.00 in0.0 mm